sensor_id;sensor_type;location;lat;lon;timestamp;temperature;humidity
292;DHT22;23311;48.776;9.162;2024-01-30T00:00:35;3.00;95.50
292;DHT22;23311;48.776;9.162;2024-01-30T00:03:04;3.00;95.50
292;DHT22;23311;48.776;9.162;2024-01-30T00:05:32;3.00;95.50
292;DHT22;23311;48.776;9.162;2024-01-30T00:08:00;3.00;95.50
292;DHT22;23311;48.776;9.162;2024-01-30T00:10:29;3.00;95.50
292;DHT22;23311;48.776;9.162;2024-01-30T00:12:57;2.90;95.50
292;DHT22;23311;48.776;9.162;2024-01-30T00:15:25;2.80;95.50
292;DHT22;23311;48.776;9.162;2024-01-30T00:17:55;2.80;95.50
292;DHT22;23311;48.776;9.162;2024-01-30T00:20:23;2.60;95.50
292;DHT22;23311;48.776;9.162;2024-01-30T00:22:52;2.70;95.50
292;DHT22;23311;48.776;9.162;2024-01-30T00:25:20;2.60;95.50
292;DHT22;23311;48.776;9.162;2024-01-30T00:27:48;2.90;95.50
292;DHT22;23311;48.776;9.162;2024-01-30T00:30:17;2.90;95.50
292;DHT22;23311;48.776;9.162;2024-01-30T00:32:46;2.80;95.50
292;DHT22;23311;48.776;9.162;2024-01-30T00:35:16;2.80;95.50
292;DHT22;23311;48.776;9.162;2024-01-30T00:37:44;2.70;95.50
292;DHT22;23311;48.776;9.162;2024-01-30T00:40:13;2.70;95.50
292;DHT22;23311;48.776;9.162;2024-01-30T00:42:43;2.70;95.50
292;DHT22;23311;48.776;9.162;2024-01-30T00:45:14;2.70;95.50
292;DHT22;23311;48.776;9.162;2024-01-30T00:47:42;2.80;95.50
292;DHT22;23311;48.776;9.162;2024-01-30T00:50:11;2.80;95.50
292;DHT22;23311;48.776;9.162;2024-01-30T00:52:41;2.80;95.50
292;DHT22;23311;48.776;9.162;2024-01-30T00:55:12;2.90;95.50
292;DHT22;23311;48.776;9.162;2024-01-30T00:57:41;3.10;95.50
292;DHT22;23311;48.776;9.162;2024-01-30T01:00:13;3.00;95.50
292;DHT22;23311;48.776;9.162;2024-01-30T01:02:44;3.00;95.50
292;DHT22;23311;48.776;9.162;2024-01-30T01:05:12;2.90;95.50
292;DHT22;23311;48.776;9.162;2024-01-30T01:07:42;2.90;95.50
292;DHT22;23311;48.776;9.162;2024-01-30T01:10:11;2.90;95.50
292;DHT22;23311;48.776;9.162;2024-01-30T01:12:40;2.80;95.50
292;DHT22;23311;48.776;9.162;2024-01-30T01:15:09;2.80;95.50
292;DHT22;23311;48.776;9.162;2024-01-30T01:17:38;2.90;95.50
292;DHT22;23311;48.776;9.162;2024-01-30T01:20:07;2.90;95.50
292;DHT22;23311;48.776;9.162;2024-01-30T01:22:37;2.80;95.50
292;DHT22;23311;48.776;9.162;2024-01-30T01:25:08;2.90;95.50
292;DHT22;23311;48.776;9.162;2024-01-30T01:27:37;2.90;95.50
292;DHT22;23311;48.776;9.162;2024-01-30T01:30:09;3.00;95.50
292;DHT22;23311;48.776;9.162;2024-01-30T01:32:39;3.10;95.50
292;DHT22;23311;48.776;9.162;2024-01-30T01:35:12;3.20;95.50
292;DHT22;23311;48.776;9.162;2024-01-30T01:37:40;3.10;95.50
292;DHT22;23311;48.776;9.162;2024-01-30T01:40:10;3.00;95.50
292;DHT22;23311;48.776;9.162;2024-01-30T01:42:38;2.80;95.50
292;DHT22;23311;48.776;9.162;2024-01-30T01:45:07;2.80;95.50
292;DHT22;23311;48.776;9.162;2024-01-30T01:47:35;2.70;95.50
292;DHT22;23311;48.776;9.162;2024-01-30T01:50:04;2.60;95.50
292;DHT22;23311;48.776;9.162;2024-01-30T01:52:33;2.50;95.50
292;DHT22;23311;48.776;9.162;2024-01-30T01:55:02;2.50;95.50
292;DHT22;23311;48.776;9.162;2024-01-30T01:57:33;2.40;95.50
292;DHT22;23311;48.776;9.162;2024-01-30T02:00:02;2.30;95.50
292;DHT22;23311;48.776;9.162;2024-01-30T02:02:35;2.40;95.50
292;DHT22;23311;48.776;9.162;2024-01-30T02:05:04;2.40;95.50
292;DHT22;23311;48.776;9.162;2024-01-30T02:07:33;2.40;95.50
292;DHT22;23311;48.776;9.162;2024-01-30T02:10:01;2.30;95.50
292;DHT22;23311;48.776;9.162;2024-01-30T02:12:32;2.20;95.50
292;DHT22;23311;48.776;9.162;2024-01-30T02:15:00;2.20;95.50
292;DHT22;23311;48.776;9.162;2024-01-30T02:17:31;2.20;95.50
292;DHT22;23311;48.776;9.162;2024-01-30T02:19:59;2.20;95.50
292;DHT22;23311;48.776;9.162;2024-01-30T02:22:29;2.20;95.50
292;DHT22;23311;48.776;9.162;2024-01-30T02:24:58;2.20;95.50
292;DHT22;23311;48.776;9.162;2024-01-30T02:27:26;2.40;95.50
292;DHT22;23311;48.776;9.162;2024-01-30T02:29:54;2.50;95.50
292;DHT22;23311;48.776;9.162;2024-01-30T02:32:22;2.60;95.50
292;DHT22;23311;48.776;9.162;2024-01-30T02:34:51;2.60;95.50
292;DHT22;23311;48.776;9.162;2024-01-30T02:37:19;2.50;95.50
292;DHT22;23311;48.776;9.162;2024-01-30T02:39:49;2.60;95.50
292;DHT22;23311;48.776;9.162;2024-01-30T02:42:17;2.30;95.50
292;DHT22;23311;48.776;9.162;2024-01-30T02:44:46;2.20;95.50
292;DHT22;23311;48.776;9.162;2024-01-30T02:47:14;2.20;95.50
292;DHT22;23311;48.776;9.162;2024-01-30T02:49:42;2.10;95.50
292;DHT22;23311;48.776;9.162;2024-01-30T02:52:10;2.20;95.50
292;DHT22;23311;48.776;9.162;2024-01-30T02:54:39;2.20;95.50
292;DHT22;23311;48.776;9.162;2024-01-30T02:57:08;2.20;95.50
292;DHT22;23311;48.776;9.162;2024-01-30T02:59:36;2.10;95.50
292;DHT22;23311;48.776;9.162;2024-01-30T03:02:05;2.00;95.50
292;DHT22;23311;48.776;9.162;2024-01-30T03:04:33;1.90;95.50
292;DHT22;23311;48.776;9.162;2024-01-30T03:07:01;1.90;95.50
292;DHT22;23311;48.776;9.162;2024-01-30T03:09:30;1.90;95.50
292;DHT22;23311;48.776;9.162;2024-01-30T03:11:59;2.00;95.50
292;DHT22;23311;48.776;9.162;2024-01-30T03:14:30;2.00;95.50
292;DHT22;23311;48.776;9.162;2024-01-30T03:16:59;1.80;95.50
292;DHT22;23311;48.776;9.162;2024-01-30T03:19:27;1.80;95.50
292;DHT22;23311;48.776;9.162;2024-01-30T03:21:56;1.90;95.50
292;DHT22;23311;48.776;9.162;2024-01-30T03:24:24;1.90;95.50
292;DHT22;23311;48.776;9.162;2024-01-30T03:26:53;2.00;95.50
292;DHT22;23311;48.776;9.162;2024-01-30T03:29:21;2.00;95.50
292;DHT22;23311;48.776;9.162;2024-01-30T03:31:51;2.00;95.50
292;DHT22;23311;48.776;9.162;2024-01-30T03:34:19;2.00;95.50
292;DHT22;23311;48.776;9.162;2024-01-30T03:36:48;2.00;95.50
292;DHT22;23311;48.776;9.162;2024-01-30T03:39:16;2.00;95.50
292;DHT22;23311;48.776;9.162;2024-01-30T03:41:45;2.00;95.50
292;DHT22;23311;48.776;9.162;2024-01-30T03:44:13;2.00;95.50
292;DHT22;23311;48.776;9.162;2024-01-30T03:46:41;2.10;95.50
292;DHT22;23311;48.776;9.162;2024-01-30T03:49:11;2.20;95.50
292;DHT22;23311;48.776;9.162;2024-01-30T03:51:39;2.20;95.50
292;DHT22;23311;48.776;9.162;2024-01-30T03:54:07;2.10;95.50
292;DHT22;23311;48.776;9.162;2024-01-30T03:56:36;2.10;95.50
292;DHT22;23311;48.776;9.162;2024-01-30T03:59:04;2.10;95.50
292;DHT22;23311;48.776;9.162;2024-01-30T04:01:33;2.10;95.50
292;DHT22;23311;48.776;9.162;2024-01-30T04:04:02;2.10;95.50
292;DHT22;23311;48.776;9.162;2024-01-30T04:06:31;2.10;95.50
292;DHT22;23311;48.776;9.162;2024-01-30T04:08:59;2.10;95.50
292;DHT22;23311;48.776;9.162;2024-01-30T04:11:28;2.10;95.50
292;DHT22;23311;48.776;9.162;2024-01-30T04:13:56;2.10;95.50
292;DHT22;23311;48.776;9.162;2024-01-30T04:16:24;2.00;95.50
292;DHT22;23311;48.776;9.162;2024-01-30T04:18:52;2.00;95.50
292;DHT22;23311;48.776;9.162;2024-01-30T04:21:21;1.90;95.50
292;DHT22;23311;48.776;9.162;2024-01-30T04:23:50;1.90;95.50
292;DHT22;23311;48.776;9.162;2024-01-30T04:26:19;1.90;95.50
292;DHT22;23311;48.776;9.162;2024-01-30T04:28:47;1.80;95.50
292;DHT22;23311;48.776;9.162;2024-01-30T04:31:16;1.70;95.50
292;DHT22;23311;48.776;9.162;2024-01-30T04:33:44;1.80;95.50
292;DHT22;23311;48.776;9.162;2024-01-30T04:36:12;2.20;95.50
292;DHT22;23311;48.776;9.162;2024-01-30T04:38:41;2.20;95.50
292;DHT22;23311;48.776;9.162;2024-01-30T04:41:10;2.30;95.50
292;DHT22;23311;48.776;9.162;2024-01-30T04:43:38;2.30;95.50
292;DHT22;23311;48.776;9.162;2024-01-30T04:46:06;2.10;95.50
292;DHT22;23311;48.776;9.162;2024-01-30T04:48:35;1.90;95.50
292;DHT22;23311;48.776;9.162;2024-01-30T04:51:03;1.90;95.50
292;DHT22;23311;48.776;9.162;2024-01-30T04:53:31;1.80;95.50
292;DHT22;23311;48.776;9.162;2024-01-30T04:55:59;1.80;95.50
292;DHT22;23311;48.776;9.162;2024-01-30T04:58:29;1.70;95.50
292;DHT22;23311;48.776;9.162;2024-01-30T05:00:57;1.70;95.50
292;DHT22;23311;48.776;9.162;2024-01-30T05:03:25;1.70;95.50
292;DHT22;23311;48.776;9.162;2024-01-30T05:05:54;1.70;95.50
292;DHT22;23311;48.776;9.162;2024-01-30T05:08:22;1.70;95.50
292;DHT22;23311;48.776;9.162;2024-01-30T05:10:50;1.70;95.50
292;DHT22;23311;48.776;9.162;2024-01-30T05:13:19;1.70;95.50
292;DHT22;23311;48.776;9.162;2024-01-30T05:15:48;1.80;95.50
292;DHT22;23311;48.776;9.162;2024-01-30T05:18:16;1.70;95.50
292;DHT22;23311;48.776;9.162;2024-01-30T05:20:45;1.70;95.50
292;DHT22;23311;48.776;9.162;2024-01-30T05:23:13;1.70;95.50
292;DHT22;23311;48.776;9.162;2024-01-30T05:25:41;1.80;95.50
292;DHT22;23311;48.776;9.162;2024-01-30T05:28:10;1.80;95.50
292;DHT22;23311;48.776;9.162;2024-01-30T05:30:38;1.90;95.50
292;DHT22;23311;48.776;9.162;2024-01-30T05:33:07;1.80;95.50
292;DHT22;23311;48.776;9.162;2024-01-30T05:35:37;1.80;95.50
292;DHT22;23311;48.776;9.162;2024-01-30T05:38:05;2.00;95.50
292;DHT22;23311;48.776;9.162;2024-01-30T05:40:33;2.00;95.50
292;DHT22;23311;48.776;9.162;2024-01-30T05:43:02;2.00;95.50
292;DHT22;23311;48.776;9.162;2024-01-30T05:45:30;1.90;95.50
292;DHT22;23311;48.776;9.162;2024-01-30T05:47:58;1.90;95.50
292;DHT22;23311;48.776;9.162;2024-01-30T05:50:28;2.10;95.50
292;DHT22;23311;48.776;9.162;2024-01-30T05:52:57;1.90;95.50
292;DHT22;23311;48.776;9.162;2024-01-30T05:55:25;1.80;95.50
292;DHT22;23311;48.776;9.162;2024-01-30T05:57:53;1.80;95.50
292;DHT22;23311;48.776;9.162;2024-01-30T06:00:21;1.90;95.50
292;DHT22;23311;48.776;9.162;2024-01-30T06:02:49;1.90;95.50
292;DHT22;23311;48.776;9.162;2024-01-30T06:05:18;1.80;95.50
292;DHT22;23311;48.776;9.162;2024-01-30T06:07:47;1.80;95.50
292;DHT22;23311;48.776;9.162;2024-01-30T06:10:16;1.90;95.50
292;DHT22;23311;48.776;9.162;2024-01-30T06:12:48;2.00;95.50
292;DHT22;23311;48.776;9.162;2024-01-30T06:15:16;1.90;95.50
292;DHT22;23311;48.776;9.162;2024-01-30T06:17:44;1.90;95.50
292;DHT22;23311;48.776;9.162;2024-01-30T06:20:12;1.80;95.50
292;DHT22;23311;48.776;9.162;2024-01-30T06:22:41;1.80;95.50
292;DHT22;23311;48.776;9.162;2024-01-30T06:25:10;1.70;95.50
292;DHT22;23311;48.776;9.162;2024-01-30T06:27:39;1.80;95.50
292;DHT22;23311;48.776;9.162;2024-01-30T06:30:08;1.80;95.50
292;DHT22;23311;48.776;9.162;2024-01-30T06:32:36;1.90;95.50
292;DHT22;23311;48.776;9.162;2024-01-30T06:35:06;1.90;95.50
292;DHT22;23311;48.776;9.162;2024-01-30T06:37:35;1.90;95.50
292;DHT22;23311;48.776;9.162;2024-01-30T06:40:04;1.90;95.50
292;DHT22;23311;48.776;9.162;2024-01-30T06:42:34;2.00;95.50
292;DHT22;23311;48.776;9.162;2024-01-30T06:45:03;2.00;95.50
292;DHT22;23311;48.776;9.162;2024-01-30T06:47:31;2.00;95.50
292;DHT22;23311;48.776;9.162;2024-01-30T06:49:59;1.90;95.50
292;DHT22;23311;48.776;9.162;2024-01-30T06:52:29;1.80;95.50
292;DHT22;23311;48.776;9.162;2024-01-30T06:54:58;1.80;95.50
292;DHT22;23311;48.776;9.162;2024-01-30T06:57:26;1.90;95.50
292;DHT22;23311;48.776;9.162;2024-01-30T06:59:56;1.90;95.50
292;DHT22;23311;48.776;9.162;2024-01-30T07:02:24;1.90;95.50
292;DHT22;23311;48.776;9.162;2024-01-30T07:04:52;1.80;95.50
292;DHT22;23311;48.776;9.162;2024-01-30T07:07:20;2.00;95.50
292;DHT22;23311;48.776;9.162;2024-01-30T07:09:49;2.30;95.50
292;DHT22;23311;48.776;9.162;2024-01-30T07:12:19;2.30;95.50
292;DHT22;23311;48.776;9.162;2024-01-30T07:14:47;2.20;95.50
292;DHT22;23311;48.776;9.162;2024-01-30T07:17:18;2.20;95.50
292;DHT22;23311;48.776;9.162;2024-01-30T07:19:46;2.30;95.50
292;DHT22;23311;48.776;9.162;2024-01-30T07:22:15;2.20;95.50
292;DHT22;23311;48.776;9.162;2024-01-30T07:24:43;2.40;95.50
292;DHT22;23311;48.776;9.162;2024-01-30T07:27:14;2.50;95.50
292;DHT22;23311;48.776;9.162;2024-01-30T07:29:44;2.70;95.50
292;DHT22;23311;48.776;9.162;2024-01-30T07:32:12;2.90;95.50
292;DHT22;23311;48.776;9.162;2024-01-30T07:34:42;2.90;95.50
292;DHT22;23311;48.776;9.162;2024-01-30T07:37:29;2.90;95.50
292;DHT22;23311;48.776;9.162;2024-01-30T07:39:57;2.80;95.50
292;DHT22;23311;48.776;9.162;2024-01-30T07:42:26;2.80;95.50
292;DHT22;23311;48.776;9.162;2024-01-30T07:44:54;2.80;95.50
292;DHT22;23311;48.776;9.162;2024-01-30T07:47:22;2.80;95.50
292;DHT22;23311;48.776;9.162;2024-01-30T07:49:52;2.80;95.50
292;DHT22;23311;48.776;9.162;2024-01-30T07:52:21;2.90;95.50
292;DHT22;23311;48.776;9.162;2024-01-30T07:54:50;2.90;95.50
292;DHT22;23311;48.776;9.162;2024-01-30T07:57:18;3.00;95.50
292;DHT22;23311;48.776;9.162;2024-01-30T07:59:46;3.10;95.50
292;DHT22;23311;48.776;9.162;2024-01-30T08:02:15;3.20;95.50
292;DHT22;23311;48.776;9.162;2024-01-30T08:04:43;3.30;95.50
292;DHT22;23311;48.776;9.162;2024-01-30T08:07:17;3.50;95.50
292;DHT22;23311;48.776;9.162;2024-01-30T08:09:45;3.60;95.50
292;DHT22;23311;48.776;9.162;2024-01-30T08:12:13;3.80;95.50
292;DHT22;23311;48.776;9.162;2024-01-30T08:14:41;3.90;95.50
292;DHT22;23311;48.776;9.162;2024-01-30T08:17:09;4.10;95.50
292;DHT22;23311;48.776;9.162;2024-01-30T08:19:37;4.20;95.50
292;DHT22;23311;48.776;9.162;2024-01-30T08:22:06;4.30;95.50
292;DHT22;23311;48.776;9.162;2024-01-30T08:24:35;4.50;95.50
292;DHT22;23311;48.776;9.162;2024-01-30T08:27:04;4.60;95.50
292;DHT22;23311;48.776;9.162;2024-01-30T08:29:32;4.90;95.50
292;DHT22;23311;48.776;9.162;2024-01-30T08:32:00;5.10;95.50
292;DHT22;23311;48.776;9.162;2024-01-30T08:34:28;5.40;95.50
292;DHT22;23311;48.776;9.162;2024-01-30T08:36:56;5.50;95.50
292;DHT22;23311;48.776;9.162;2024-01-30T08:39:24;5.60;95.50
292;DHT22;23311;48.776;9.162;2024-01-30T08:41:54;5.70;95.50
292;DHT22;23311;48.776;9.162;2024-01-30T08:44:22;5.90;95.50
292;DHT22;23311;48.776;9.162;2024-01-30T08:46:50;6.00;95.50
292;DHT22;23311;48.776;9.162;2024-01-30T08:49:20;6.00;95.50
292;DHT22;23311;48.776;9.162;2024-01-30T08:51:49;6.10;95.50
292;DHT22;23311;48.776;9.162;2024-01-30T08:54:17;6.20;95.50
292;DHT22;23311;48.776;9.162;2024-01-30T08:56:45;6.30;95.50
292;DHT22;23311;48.776;9.162;2024-01-30T08:59:15;6.30;95.50
292;DHT22;23311;48.776;9.162;2024-01-30T09:01:43;6.20;95.50
292;DHT22;23311;48.776;9.162;2024-01-30T09:04:32;6.20;95.50
292;DHT22;23311;48.776;9.162;2024-01-30T09:07:00;6.20;95.50
292;DHT22;23311;48.776;9.162;2024-01-30T09:09:28;6.30;95.50
292;DHT22;23311;48.776;9.162;2024-01-30T09:11:56;6.40;95.50
292;DHT22;23311;48.776;9.162;2024-01-30T09:14:30;6.50;95.50
292;DHT22;23311;48.776;9.162;2024-01-30T09:16:58;6.50;95.50
292;DHT22;23311;48.776;9.162;2024-01-30T09:19:26;6.50;95.50
292;DHT22;23311;48.776;9.162;2024-01-30T09:21:54;6.60;95.50
292;DHT22;23311;48.776;9.162;2024-01-30T09:24:22;6.70;95.50
292;DHT22;23311;48.776;9.162;2024-01-30T09:26:50;6.80;95.50
292;DHT22;23311;48.776;9.162;2024-01-30T09:29:19;7.00;95.50
292;DHT22;23311;48.776;9.162;2024-01-30T09:31:48;7.10;95.50
292;DHT22;23311;48.776;9.162;2024-01-30T09:34:16;7.30;95.50
292;DHT22;23311;48.776;9.162;2024-01-30T09:36:45;7.40;95.50
292;DHT22;23311;48.776;9.162;2024-01-30T09:39:13;7.60;95.50
292;DHT22;23311;48.776;9.162;2024-01-30T09:41:45;7.70;95.50
292;DHT22;23311;48.776;9.162;2024-01-30T09:44:16;7.80;95.50
292;DHT22;23311;48.776;9.162;2024-01-30T09:46:48;7.90;95.50
292;DHT22;23311;48.776;9.162;2024-01-30T09:49:18;8.00;95.50
292;DHT22;23311;48.776;9.162;2024-01-30T09:51:48;8.10;95.50
292;DHT22;23311;48.776;9.162;2024-01-30T09:54:18;8.10;95.50
292;DHT22;23311;48.776;9.162;2024-01-30T09:56:47;8.20;95.50
292;DHT22;23311;48.776;9.162;2024-01-30T09:59:16;8.30;95.50
292;DHT22;23311;48.776;9.162;2024-01-30T10:01:44;8.50;95.50
292;DHT22;23311;48.776;9.162;2024-01-30T10:04:14;8.60;95.50
292;DHT22;23311;48.776;9.162;2024-01-30T10:06:43;8.80;95.50
292;DHT22;23311;48.776;9.162;2024-01-30T10:09:11;9.00;95.50
292;DHT22;23311;48.776;9.162;2024-01-30T10:11:40;9.30;95.50
292;DHT22;23311;48.776;9.162;2024-01-30T10:14:08;9.20;95.50
292;DHT22;23311;48.776;9.162;2024-01-30T10:16:37;9.30;95.50
292;DHT22;23311;48.776;9.162;2024-01-30T10:19:05;9.50;95.50
292;DHT22;23311;48.776;9.162;2024-01-30T10:21:36;9.60;95.50
292;DHT22;23311;48.776;9.162;2024-01-30T10:24:05;9.70;95.50
292;DHT22;23311;48.776;9.162;2024-01-30T10:26:33;9.80;95.50
292;DHT22;23311;48.776;9.162;2024-01-30T10:29:01;9.80;95.50
292;DHT22;23311;48.776;9.162;2024-01-30T10:31:30;9.90;95.50
292;DHT22;23311;48.776;9.162;2024-01-30T10:33:58;10.10;95.50
292;DHT22;23311;48.776;9.162;2024-01-30T10:36:46;10.20;95.50
292;DHT22;23311;48.776;9.162;2024-01-30T10:39:20;10.30;95.50
292;DHT22;23311;48.776;9.162;2024-01-30T10:41:50;10.40;95.50
292;DHT22;23311;48.776;9.162;2024-01-30T10:44:22;10.50;95.50
292;DHT22;23311;48.776;9.162;2024-01-30T10:47:02;10.70;95.50
292;DHT22;23311;48.776;9.162;2024-01-30T10:49:31;10.60;95.50
292;DHT22;23311;48.776;9.162;2024-01-30T10:52:01;10.60;95.50
292;DHT22;23311;48.776;9.162;2024-01-30T10:54:31;10.60;95.50
292;DHT22;23311;48.776;9.162;2024-01-30T10:57:03;10.60;95.50
292;DHT22;23311;48.776;9.162;2024-01-30T10:59:33;10.70;95.50
292;DHT22;23311;48.776;9.162;2024-01-30T11:02:02;10.80;95.50
292;DHT22;23311;48.776;9.162;2024-01-30T11:04:36;10.80;95.50
292;DHT22;23311;48.776;9.162;2024-01-30T11:07:15;10.80;95.50
292;DHT22;23311;48.776;9.162;2024-01-30T11:09:50;10.90;95.50
292;DHT22;23311;48.776;9.162;2024-01-30T11:12:22;11.20;95.50
292;DHT22;23311;48.776;9.162;2024-01-30T11:15:01;11.30;95.50
292;DHT22;23311;48.776;9.162;2024-01-30T11:17:49;11.40;95.50
292;DHT22;23311;48.776;9.162;2024-01-30T11:20:20;11.30;95.50
292;DHT22;23311;48.776;9.162;2024-01-30T11:22:52;11.50;95.50
292;DHT22;23311;48.776;9.162;2024-01-30T11:25:21;11.60;95.50
292;DHT22;23311;48.776;9.162;2024-01-30T11:27:51;11.60;95.50
292;DHT22;23311;48.776;9.162;2024-01-30T11:30:24;11.70;95.40
292;DHT22;23311;48.776;9.162;2024-01-30T11:33:02;11.70;95.20
292;DHT22;23311;48.776;9.162;2024-01-30T11:35:33;11.60;95.40
292;DHT22;23311;48.776;9.162;2024-01-30T11:38:05;11.70;95.20
292;DHT22;23311;48.776;9.162;2024-01-30T11:40:34;11.80;95.00
292;DHT22;23311;48.776;9.162;2024-01-30T11:43:05;11.70;95.00
292;DHT22;23311;48.776;9.162;2024-01-30T11:45:34;11.80;94.90
292;DHT22;23311;48.776;9.162;2024-01-30T11:48:04;11.90;94.70
292;DHT22;23311;48.776;9.162;2024-01-30T11:50:34;11.90;94.80
292;DHT22;23311;48.776;9.162;2024-01-30T11:53:04;12.10;94.40
292;DHT22;23311;48.776;9.162;2024-01-30T11:55:33;12.10;94.10
292;DHT22;23311;48.776;9.162;2024-01-30T11:58:03;12.20;94.00
292;DHT22;23311;48.776;9.162;2024-01-30T12:00:32;12.30;93.80
292;DHT22;23311;48.776;9.162;2024-01-30T12:03:02;12.50;93.40
292;DHT22;23311;48.776;9.162;2024-01-30T12:05:32;12.50;93.10
292;DHT22;23311;48.776;9.162;2024-01-30T12:08:00;12.60;93.00
292;DHT22;23311;48.776;9.162;2024-01-30T12:10:30;12.60;93.20
292;DHT22;23311;48.776;9.162;2024-01-30T12:13:00;12.50;93.20
292;DHT22;23311;48.776;9.162;2024-01-30T12:15:29;12.50;93.40
292;DHT22;23311;48.776;9.162;2024-01-30T12:18:04;12.60;93.30
292;DHT22;23311;48.776;9.162;2024-01-30T12:20:33;12.60;93.20
292;DHT22;23311;48.776;9.162;2024-01-30T12:23:02;12.60;93.00
292;DHT22;23311;48.776;9.162;2024-01-30T12:25:31;12.70;93.10
292;DHT22;23311;48.776;9.162;2024-01-30T12:28:00;12.90;92.50
292;DHT22;23311;48.776;9.162;2024-01-30T12:30:28;13.00;92.20
292;DHT22;23311;48.776;9.162;2024-01-30T12:32:57;12.90;92.50
292;DHT22;23311;48.776;9.162;2024-01-30T12:35:25;13.10;92.40
292;DHT22;23311;48.776;9.162;2024-01-30T12:37:58;13.10;92.00
292;DHT22;23311;48.776;9.162;2024-01-30T12:40:27;13.10;92.00
292;DHT22;23311;48.776;9.162;2024-01-30T12:42:57;13.30;91.40
292;DHT22;23311;48.776;9.162;2024-01-30T12:45:25;13.20;91.40
292;DHT22;23311;48.776;9.162;2024-01-30T12:47:53;13.20;91.60
292;DHT22;23311;48.776;9.162;2024-01-30T12:50:22;13.20;91.80
292;DHT22;23311;48.776;9.162;2024-01-30T12:52:50;13.20;91.90
292;DHT22;23311;48.776;9.162;2024-01-30T12:55:36;13.40;91.30
292;DHT22;23311;48.776;9.162;2024-01-30T12:58:06;13.40;91.40
292;DHT22;23311;48.776;9.162;2024-01-30T13:00:34;13.60;90.70
292;DHT22;23311;48.776;9.162;2024-01-30T13:03:03;13.50;91.30
292;DHT22;23311;48.776;9.162;2024-01-30T13:05:31;13.40;91.60
292;DHT22;23311;48.776;9.162;2024-01-30T13:07:59;13.40;91.70
292;DHT22;23311;48.776;9.162;2024-01-30T13:10:27;13.20;91.60
292;DHT22;23311;48.776;9.162;2024-01-30T13:12:55;13.30;91.30
292;DHT22;23311;48.776;9.162;2024-01-30T13:15:25;13.20;91.50
292;DHT22;23311;48.776;9.162;2024-01-30T13:17:53;13.20;91.80
292;DHT22;23311;48.776;9.162;2024-01-30T13:20:22;13.30;92.00
292;DHT22;23311;48.776;9.162;2024-01-30T13:22:50;13.50;91.60
292;DHT22;23311;48.776;9.162;2024-01-30T13:25:18;13.50;91.20
292;DHT22;23311;48.776;9.162;2024-01-30T13:27:46;13.50;90.90
292;DHT22;23311;48.776;9.162;2024-01-30T13:30:15;13.50;91.30
292;DHT22;23311;48.776;9.162;2024-01-30T13:32:44;13.30;91.60
292;DHT22;23311;48.776;9.162;2024-01-30T13:35:13;13.20;91.80
292;DHT22;23311;48.776;9.162;2024-01-30T13:37:41;13.10;91.90
292;DHT22;23311;48.776;9.162;2024-01-30T13:40:10;13.00;91.90
292;DHT22;23311;48.776;9.162;2024-01-30T13:42:40;12.90;92.30
292;DHT22;23311;48.776;9.162;2024-01-30T13:45:09;12.80;92.40
292;DHT22;23311;48.776;9.162;2024-01-30T13:47:38;12.80;92.60
292;DHT22;23311;48.776;9.162;2024-01-30T13:50:07;12.90;92.50
292;DHT22;23311;48.776;9.162;2024-01-30T13:52:38;12.90;92.50
292;DHT22;23311;48.776;9.162;2024-01-30T13:55:11;13.10;92.10
292;DHT22;23311;48.776;9.162;2024-01-30T13:57:40;13.20;91.30
292;DHT22;23311;48.776;9.162;2024-01-30T14:00:09;13.10;91.50
292;DHT22;23311;48.776;9.162;2024-01-30T14:02:38;13.00;91.80
292;DHT22;23311;48.776;9.162;2024-01-30T14:05:08;13.00;92.00
292;DHT22;23311;48.776;9.162;2024-01-30T14:07:37;12.90;92.30
292;DHT22;23311;48.776;9.162;2024-01-30T14:10:07;12.90;92.30
292;DHT22;23311;48.776;9.162;2024-01-30T14:12:41;12.80;92.10
292;DHT22;23311;48.776;9.162;2024-01-30T14:15:31;12.70;92.80
292;DHT22;23311;48.776;9.162;2024-01-30T14:17:59;12.70;93.00
292;DHT22;23311;48.776;9.162;2024-01-30T14:20:29;12.70;92.90
292;DHT22;23311;48.776;9.162;2024-01-30T14:22:58;12.70;93.20
292;DHT22;23311;48.776;9.162;2024-01-30T14:25:26;12.80;93.30
292;DHT22;23311;48.776;9.162;2024-01-30T14:27:55;12.70;93.40
292;DHT22;23311;48.776;9.162;2024-01-30T14:30:23;12.70;93.50
292;DHT22;23311;48.776;9.162;2024-01-30T14:32:51;12.70;93.40
292;DHT22;23311;48.776;9.162;2024-01-30T14:35:20;12.70;94.00
292;DHT22;23311;48.776;9.162;2024-01-30T14:37:50;12.60;94.20
292;DHT22;23311;48.776;9.162;2024-01-30T14:40:18;12.50;94.30
292;DHT22;23311;48.776;9.162;2024-01-30T14:42:47;12.50;94.50
292;DHT22;23311;48.776;9.162;2024-01-30T14:45:15;12.40;94.80
292;DHT22;23311;48.776;9.162;2024-01-30T14:47:44;12.30;95.00
292;DHT22;23311;48.776;9.162;2024-01-30T14:50:12;12.30;95.20
292;DHT22;23311;48.776;9.162;2024-01-30T14:52:44;12.30;95.20
292;DHT22;23311;48.776;9.162;2024-01-30T14:55:14;12.20;95.40
292;DHT22;23311;48.776;9.162;2024-01-30T14:57:42;12.10;95.50
292;DHT22;23311;48.776;9.162;2024-01-30T15:00:13;12.10;95.50
292;DHT22;23311;48.776;9.162;2024-01-30T15:02:42;12.00;95.50
292;DHT22;23311;48.776;9.162;2024-01-30T15:05:11;12.00;95.50
292;DHT22;23311;48.776;9.162;2024-01-30T15:07:40;12.00;95.50
292;DHT22;23311;48.776;9.162;2024-01-30T15:10:08;12.00;95.50
292;DHT22;23311;48.776;9.162;2024-01-30T15:12:38;11.90;95.50
292;DHT22;23311;48.776;9.162;2024-01-30T15:15:08;11.70;95.50
292;DHT22;23311;48.776;9.162;2024-01-30T15:17:38;11.60;95.50
292;DHT22;23311;48.776;9.162;2024-01-30T15:20:07;11.50;95.50
292;DHT22;23311;48.776;9.162;2024-01-30T15:22:36;11.50;95.50
292;DHT22;23311;48.776;9.162;2024-01-30T15:25:05;11.40;95.50
292;DHT22;23311;48.776;9.162;2024-01-30T15:27:33;11.40;95.50
292;DHT22;23311;48.776;9.162;2024-01-30T15:30:04;11.30;95.50
292;DHT22;23311;48.776;9.162;2024-01-30T15:32:33;11.20;95.50
292;DHT22;23311;48.776;9.162;2024-01-30T15:35:01;11.20;95.50
292;DHT22;23311;48.776;9.162;2024-01-30T15:37:32;11.20;95.50
292;DHT22;23311;48.776;9.162;2024-01-30T15:40:00;11.20;95.50
292;DHT22;23311;48.776;9.162;2024-01-30T15:42:29;11.20;95.50
292;DHT22;23311;48.776;9.162;2024-01-30T15:44:58;11.20;95.50
292;DHT22;23311;48.776;9.162;2024-01-30T15:47:27;11.10;95.50
292;DHT22;23311;48.776;9.162;2024-01-30T15:49:56;11.00;95.50
292;DHT22;23311;48.776;9.162;2024-01-30T15:52:24;10.90;95.50
292;DHT22;23311;48.776;9.162;2024-01-30T15:55:14;10.70;95.50
292;DHT22;23311;48.776;9.162;2024-01-30T15:58:04;10.60;95.50
292;DHT22;23311;48.776;9.162;2024-01-30T16:00:53;10.50;95.50
292;DHT22;23311;48.776;9.162;2024-01-30T16:03:44;10.30;95.50
292;DHT22;23311;48.776;9.162;2024-01-30T16:06:37;10.20;95.50
292;DHT22;23311;48.776;9.162;2024-01-30T16:09:28;10.20;95.50
292;DHT22;23311;48.776;9.162;2024-01-30T16:12:17;10.10;95.50
292;DHT22;23311;48.776;9.162;2024-01-30T16:15:10;10.00;95.50
292;DHT22;23311;48.776;9.162;2024-01-30T16:18:00;10.00;95.50
292;DHT22;23311;48.776;9.162;2024-01-30T16:20:52;10.00;95.50
292;DHT22;23311;48.776;9.162;2024-01-30T16:23:43;10.00;95.50
292;DHT22;23311;48.776;9.162;2024-01-30T16:26:34;9.90;95.50
292;DHT22;23311;48.776;9.162;2024-01-30T16:29:24;10.00;95.50